Time;durP1;ratioP1;P1;durP2;ratioP2;P2;SDS_P1;SDS_P2;PMS_P1;PMS_P2;Temp;Humidity;BMP_temperature;BMP_pressure;BME280_temperature;BME280_humidity;BME280_pressure;Samples;Min_cycle;Max_cycle;Signal;HPM_P1;HPM_P2
2023/08/27 00:02:00;;;;;;;2.25;1.00;;;;;;;;;;5083257;28;20055;-83
2023/08/27 00:04:26;;;;;;;1.55;0.88;;;;;;;;;;5080227;28;20394;-84
2023/08/27 00:06:51;;;;;;;3.53;0.93;;;;;;;;;;5076072;28;20036;-83
2023/08/27 00:09:16;;;;;;;2.00;0.98;;;;;;;;;;5075175;28;20107;-83
2023/08/27 00:11:42;;;;;;;1.63;1.00;;;;;;;;;;5082800;28;20408;-83
2023/08/27 00:14:08;;;;;;;2.13;1.00;;;;;;;;;;5084180;28;20017;-83
2023/08/27 00:16:33;;;;;;;2.85;1.00;;;;;;;;;;5080451;28;20040;-84
2023/08/27 00:18:59;;;;;;;2.97;1.30;;;;;;;;;;5075298;28;20024;-83
2023/08/27 00:21:24;;;;;;;2.30;0.90;;;;;;;;;;5082152;28;20389;-84
2023/08/27 00:23:50;;;;;;;3.30;1.13;;;;;;;;;;5093181;28;20082;-84
2023/08/27 00:26:15;;;;;;;2.80;1.00;;;;;;;;;;5087297;28;20020;-83
2023/08/27 00:28:42;;;;;;;4.45;1.27;;;;;;;;;;5076169;28;20027;-83
2023/08/27 00:31:07;;;;;;;5.85;1.20;;;;;;;;;;5083048;28;20431;-83
2023/08/27 00:33:33;;;;;;;1.48;0.93;;;;;;;;;;5093455;28;20035;-83
2023/08/27 00:35:58;;;;;;;2.60;1.10;;;;;;;;;;5104716;28;20054;-83
2023/08/27 00:38:24;;;;;;;2.58;1.00;;;;;;;;;;5098528;28;20382;-84
2023/08/27 00:40:49;;;;;;;1.48;0.90;;;;;;;;;;5092159;28;20068;-83
2023/08/27 00:43:15;;;;;;;3.80;0.98;;;;;;;;;;5082754;28;20048;-83
2023/08/27 00:45:41;;;;;;;4.57;1.17;;;;;;;;;;5083514;28;20497;-83
2023/08/27 00:48:07;;;;;;;4.07;1.08;;;;;;;;;;5088013;28;20033;-83
2023/08/27 00:50:33;;;;;;;2.05;0.90;;;;;;;;;;5089734;28;20589;-84
2023/08/27 00:52:58;;;;;;;6.13;1.13;;;;;;;;;;5081397;28;20033;-84
2023/08/27 00:55:24;;;;;;;1.35;1.10;;;;;;;;;;5077490;28;20037;-84
2023/08/27 00:57:51;;;;;;;2.67;1.13;;;;;;;;;;5081300;28;20148;-83
2023/08/27 01:00:18;;;;;;;5.28;1.00;;;;;;;;;;5102792;28;20036;-83
2023/08/27 01:02:44;;;;;;;1.98;0.95;;;;;;;;;;5086135;28;20101;-82
2023/08/27 01:05:12;;;;;;;4.03;1.13;;;;;;;;;;5085810;28;20115;-83
2023/08/27 01:07:49;;;;;;;2.47;0.80;;;;;;;;;;5091240;28;20032;-83
2023/08/27 01:10:20;;;;;;;2.17;1.00;;;;;;;;;;5093336;28;20055;-83
2023/08/27 01:13:09;;;;;;;2.47;0.85;;;;;;;;;;5089391;28;20036;-83
2023/08/27 01:15:35;;;;;;;1.63;1.00;;;;;;;;;;5087175;28;20086;-83
2023/08/27 01:18:03;;;;;;;2.25;1.00;;;;;;;;;;5070816;28;20036;-83
2023/08/27 01:20:30;;;;;;;2.45;1.00;;;;;;;;;;5082351;28;20111;-84
2023/08/27 01:22:55;;;;;;;3.58;1.05;;;;;;;;;;5089470;28;20052;-84
2023/08/27 01:25:31;;;;;;;2.47;1.13;;;;;;;;;;5086927;28;20079;-84
2023/08/27 01:28:09;;;;;;;1.98;1.20;;;;;;;;;;5095868;28;20029;-84
2023/08/27 01:30:45;;;;;;;2.67;1.10;;;;;;;;;;5082962;28;20489;-84
2023/08/27 01:33:24;;;;;;;2.85;1.38;;;;;;;;;;5087952;28;20036;-84
2023/08/27 01:35:50;;;;;;;2.03;1.10;;;;;;;;;;5091334;28;20063;-84
2023/08/27 01:38:18;;;;;;;1.80;1.10;;;;;;;;;;5091933;28;20025;-83
2023/08/27 01:40:43;;;;;;;4.47;1.40;;;;;;;;;;5096183;28;20039;-83
2023/08/27 01:43:09;;;;;;;4.63;1.13;;;;;;;;;;5082929;28;20032;-83
2023/08/27 01:45:34;;;;;;;2.00;1.20;;;;;;;;;;5085872;28;20040;-83
2023/08/27 01:48:01;;;;;;;4.78;1.35;;;;;;;;;;5091337;28;20039;-83
2023/08/27 01:50:26;;;;;;;6.35;1.50;;;;;;;;;;5088943;28;20059;-83
2023/08/27 01:52:53;;;;;;;1.88;1.20;;;;;;;;;;5082232;28;20035;-85
2023/08/27 01:55:18;;;;;;;2.75;1.30;;;;;;;;;;5080838;28;20107;-85
2023/08/27 01:57:45;;;;;;;3.97;1.20;;;;;;;;;;5088398;28;20111;-83
2023/08/27 02:00:11;;;;;;;3.78;1.27;;;;;;;;;;5093426;28;20402;-84
2023/08/27 02:02:45;;;;;;;3.88;1.45;;;;;;;;;;5085098;28;20032;-84
2023/08/27 02:05:11;;;;;;;2.60;1.20;;;;;;;;;;5084068;28;20020;-84
2023/08/27 02:07:38;;;;;;;5.45;1.40;;;;;;;;;;5091267;28;20114;-84
2023/08/27 02:10:05;;;;;;;4.25;1.13;;;;;;;;;;5076670;28;20490;-84
2023/08/27 02:12:31;;;;;;;5.65;1.40;;;;;;;;;;5084356;28;20028;-85
2023/08/27 02:14:57;;;;;;;4.43;1.23;;;;;;;;;;5084850;28;20393;-85
2023/08/27 02:17:22;;;;;;;4.35;1.40;;;;;;;;;;5089863;28;20024;-84
2023/08/27 02:19:48;;;;;;;3.30;1.10;;;;;;;;;;5079595;28;20054;-84
2023/08/27 02:22:19;;;;;;;4.07;1.35;;;;;;;;;;5084664;28;20118;-84
2023/08/27 02:24:44;;;;;;;5.00;1.70;;;;;;;;;;5086733;28;20119;-84
2023/08/27 02:27:12;;;;;;;5.07;1.15;;;;;;;;;;5083707;28;20047;-84
2023/08/27 02:29:37;;;;;;;3.42;1.30;;;;;;;;;;5091463;28;20543;-85
2023/08/27 02:32:03;;;;;;;1.67;1.10;;;;;;;;;;5089885;28;20553;-84
2023/08/27 02:34:28;;;;;;;3.33;1.27;;;;;;;;;;5100414;27;20025;-84
2023/08/27 02:36:54;;;;;;;4.53;1.30;;;;;;;;;;5097235;28;20131;-83
2023/08/27 02:39:21;;;;;;;4.15;1.30;;;;;;;;;;5090468;28;20387;-84
2023/08/27 02:41:47;;;;;;;5.35;1.20;;;;;;;;;;5078391;28;20107;-83
2023/08/27 02:44:12;;;;;;;2.60;1.08;;;;;;;;;;5087005;28;20032;-84
2023/08/27 02:46:38;;;;;;;1.90;1.30;;;;;;;;;;5079821;28;20135;-84
2023/08/27 02:49:03;;;;;;;3.60;1.25;;;;;;;;;;5088688;28;20363;-85
2023/08/27 02:51:29;;;;;;;3.72;1.10;;;;;;;;;;5094159;28;20504;-85
2023/08/27 02:53:55;;;;;;;3.03;1.10;;;;;;;;;;5081601;28;20016;-84
2023/08/27 02:56:21;;;;;;;8.77;1.98;;;;;;;;;;5087000;28;20063;-84
2023/08/27 02:58:48;;;;;;;3.17;1.23;;;;;;;;;;5090358;28;20028;-84
2023/08/27 03:01:20;;;;;;;2.60;1.30;;;;;;;;;;5080978;28;20071;-83
2023/08/27 03:03:48;;;;;;;2.03;1.10;;;;;;;;;;5094089;28;20024;-84
2023/08/27 03:06:14;;;;;;;2.55;1.20;;;;;;;;;;5084890;28;20043;-83
2023/08/27 03:08:40;;;;;;;2.08;1.10;;;;;;;;;;5079703;28;20032;-84
2023/08/27 03:11:05;;;;;;;8.23;1.15;;;;;;;;;;5100163;28;20094;-84
2023/08/27 03:13:31;;;;;;;3.03;1.30;;;;;;;;;;5083563;28;20028;-85
2023/08/27 03:15:56;;;;;;;1.75;1.15;;;;;;;;;;5089772;28;20028;-84
2023/08/27 03:18:22;;;;;;;2.17;1.20;;;;;;;;;;5090671;28;20091;-84
2023/08/27 03:20:47;;;;;;;6.43;1.40;;;;;;;;;;5089197;28;20035;-84
2023/08/27 03:23:13;;;;;;;3.10;1.38;;;;;;;;;;5082746;28;20029;-84
2023/08/27 03:25:38;;;;;;;5.25;1.40;;;;;;;;;;5078916;28;20150;-85
2023/08/27 03:28:04;;;;;;;3.35;1.10;;;;;;;;;;5093285;28;20574;-85
2023/08/27 03:30:31;;;;;;;2.88;1.25;;;;;;;;;;5085447;28;20028;-85
2023/08/27 03:32:57;;;;;;;1.88;1.05;;;;;;;;;;5086471;28;20108;-84
2023/08/27 03:35:22;;;;;;;1.98;1.10;;;;;;;;;;5089368;28;20036;-84
2023/08/27 03:37:48;;;;;;;3.08;1.05;;;;;;;;;;5090057;28;20055;-84
2023/08/27 03:40:13;;;;;;;2.13;1.00;;;;;;;;;;5086955;28;20031;-84
2023/08/27 03:42:39;;;;;;;4.53;1.00;;;;;;;;;;5092721;28;20036;-84
2023/08/27 03:45:05;;;;;;;2.85;1.08;;;;;;;;;;5089694;28;20119;-84
2023/08/27 03:47:31;;;;;;;1.85;1.10;;;;;;;;;;5086387;28;20414;-84
2023/08/27 03:49:56;;;;;;;3.50;1.50;;;;;;;;;;5086923;28;20040;-83
2023/08/27 03:52:22;;;;;;;5.32;1.40;;;;;;;;;;5086315;28;20036;-84
2023/08/27 03:54:47;;;;;;;3.40;1.30;;;;;;;;;;5084293;28;20046;-83
2023/08/27 03:57:13;;;;;;;3.40;1.30;;;;;;;;;;5078467;28;20048;-84
2023/08/27 03:59:38;;;;;;;3.13;1.17;;;;;;;;;;5082035;28;20032;-84
2023/08/27 04:02:04;;;;;;;4.97;1.40;;;;;;;;;;5079305;28;20025;-84
2023/08/27 04:04:30;;;;;;;5.80;1.50;;;;;;;;;;5095516;28;20431;-84
2023/08/27 04:06:55;;;;;;;2.47;1.40;;;;;;;;;;5092684;28;20135;-84
2023/08/27 04:09:21;;;;;;;3.95;1.30;;;;;;;;;;5088231;28;20081;-84
2023/08/27 04:11:46;;;;;;;3.35;1.30;;;;;;;;;;5081398;28;20028;-84
2023/08/27 04:14:12;;;;;;;3.55;1.30;;;;;;;;;;5093876;28;20533;-83
2023/08/27 04:16:37;;;;;;;3.92;1.30;;;;;;;;;;5081043;28;20044;-83
2023/08/27 04:19:03;;;;;;;3.38;1.50;;;;;;;;;;5090752;28;20441;-83
2023/08/27 04:21:29;;;;;;;3.05;1.23;;;;;;;;;;5085357;28;20462;-83
2023/08/27 04:23:55;;;;;;;4.28;1.48;;;;;;;;;;5090372;28;20024;-84
2023/08/27 04:26:22;;;;;;;4.80;1.48;;;;;;;;;;5085485;28;20473;-83
2023/08/27 04:28:48;;;;;;;4.90;1.40;;;;;;;;;;5088329;28;20029;-83
2023/08/27 04:31:16;;;;;;;5.82;1.75;;;;;;;;;;5087973;28;20028;-83
2023/08/27 04:33:42;;;;;;;2.60;1.40;;;;;;;;;;5081376;28;20031;-83
2023/08/27 04:36:08;;;;;;;4.38;1.40;;;;;;;;;;5077729;28;20127;-84
2023/08/27 04:38:33;;;;;;;2.58;1.50;;;;;;;;;;5089435;28;20154;-84
2023/08/27 04:41:00;;;;;;;2.33;1.50;;;;;;;;;;5090167;28;20119;-84
2023/08/27 04:43:26;;;;;;;2.50;1.48;;;;;;;;;;5090086;28;20088;-84
2023/08/27 04:45:52;;;;;;;3.47;1.50;;;;;;;;;;5093884;28;20032;-83
2023/08/27 04:48:19;;;;;;;2.80;1.50;;;;;;;;;;5090289;28;20028;-84
2023/08/27 04:50:45;;;;;;;2.20;1.42;;;;;;;;;;5075913;28;20390;-84
2023/08/27 04:53:12;;;;;;;3.10;1.60;;;;;;;;;;5079928;28;20508;-84
2023/08/27 04:55:38;;;;;;;2.78;1.60;;;;;;;;;;5085971;28;20056;-84
2023/08/27 04:58:04;;;;;;;4.30;1.60;;;;;;;;;;5077558;28;20058;-84
2023/08/27 05:00:30;;;;;;;3.00;1.45;;;;;;;;;;5074138;28;20459;-84
2023/08/27 05:02:55;;;;;;;3.80;1.80;;;;;;;;;;5079016;28;20062;-84
2023/08/27 05:05:21;;;;;;;4.85;1.48;;;;;;;;;;5084037;28;20482;-83
2023/08/27 05:07:47;;;;;;;3.50;1.55;;;;;;;;;;5077865;28;20034;-84
2023/08/27 05:10:13;;;;;;;2.00;1.40;;;;;;;;;;5080479;28;20124;-84
2023/08/27 05:12:38;;;;;;;3.03;1.48;;;;;;;;;;5078472;28;20088;-84
2023/08/27 05:15:06;;;;;;;1.85;1.30;;;;;;;;;;5084081;28;20093;-84
2023/08/27 05:17:32;;;;;;;4.53;1.40;;;;;;;;;;5097077;28;20139;-84
2023/08/27 05:19:58;;;;;;;1.85;1.20;;;;;;;;;;5080498;28;20107;-84
2023/08/27 05:22:24;;;;;;;1.60;1.23;;;;;;;;;;5082049;28;20479;-84
2023/08/27 05:24:49;;;;;;;5.18;1.25;;;;;;;;;;5087341;28;20066;-84
2023/08/27 05:27:15;;;;;;;2.65;1.30;;;;;;;;;;5076588;28;20481;-84
2023/08/27 05:29:40;;;;;;;4.00;1.40;;;;;;;;;;5085280;28;20036;-84
2023/08/27 05:32:06;;;;;;;1.80;1.35;;;;;;;;;;5079466;28;20122;-83
2023/08/27 05:34:32;;;;;;;2.58;1.70;;;;;;;;;;5090731;28;20028;-83
2023/08/27 05:36:57;;;;;;;3.83;1.70;;;;;;;;;;5073614;28;20101;-84
2023/08/27 05:39:23;;;;;;;2.83;1.50;;;;;;;;;;5086734;28;20028;-84
2023/08/27 05:41:49;;;;;;;2.15;1.73;;;;;;;;;;5087093;28;20462;-83
2023/08/27 05:44:14;;;;;;;4.55;2.05;;;;;;;;;;5086766;28;20033;-84
2023/08/27 05:46:40;;;;;;;3.17;1.60;;;;;;;;;;5086615;28;20028;-84
2023/08/27 05:49:06;;;;;;;3.50;2.10;;;;;;;;;;5086302;28;20110;-84
2023/08/27 05:51:32;;;;;;;2.95;1.60;;;;;;;;;;5101116;28;20070;-84
2023/08/27 05:53:58;;;;;;;2.92;1.80;;;;;;;;;;5087077;28;20112;-84
2023/08/27 05:56:26;;;;;;;2.25;1.70;;;;;;;;;;5085585;28;20071;-84
2023/08/27 05:58:53;;;;;;;4.95;2.00;;;;;;;;;;5090780;28;20036;-84
2023/08/27 06:01:18;;;;;;;2.35;1.67;;;;;;;;;;5076540;28;20028;-83
2023/08/27 06:03:44;;;;;;;3.50;1.95;;;;;;;;;;5070437;28;20028;-82
2023/08/27 06:06:10;;;;;;;3.40;1.98;;;;;;;;;;5082940;28;20044;-83
2023/08/27 06:08:36;;;;;;;4.63;1.77;;;;;;;;;;5079135;28;20027;-82
2023/08/27 06:11:04;;;;;;;2.60;1.90;;;;;;;;;;5076515;28;20386;-83
2023/08/27 06:13:30;;;;;;;2.67;1.88;;;;;;;;;;5088341;28;20441;-83
2023/08/27 06:15:56;;;;;;;3.60;1.88;;;;;;;;;;5079902;28;20029;-82
2023/08/27 06:18:22;;;;;;;2.78;1.90;;;;;;;;;;5094853;28;20120;-82
2023/08/27 06:20:48;;;;;;;3.65;1.98;;;;;;;;;;5090926;28;20135;-83
2023/08/27 06:23:14;;;;;;;3.22;1.88;;;;;;;;;;5079300;28;20584;-83
2023/08/27 06:25:40;;;;;;;2.30;1.70;;;;;;;;;;5084272;28;20024;-84
2023/08/27 06:28:07;;;;;;;2.05;1.35;;;;;;;;;;5088081;28;20024;-83
2023/08/27 06:30:32;;;;;;;1.85;1.40;;;;;;;;;;5081226;28;20048;-83
2023/08/27 06:33:01;;;;;;;2.45;1.50;;;;;;;;;;5082100;28;20029;-83
2023/08/27 06:35:26;;;;;;;1.80;1.20;;;;;;;;;;5085372;28;20123;-84
2023/08/27 06:37:52;;;;;;;1.90;1.50;;;;;;;;;;5080887;28;20070;-83
2023/08/27 06:40:18;;;;;;;2.25;1.10;;;;;;;;;;5084758;28;20082;-84
2023/08/27 06:42:43;;;;;;;3.40;1.40;;;;;;;;;;5077530;28;20040;-83
2023/08/27 06:45:09;;;;;;;5.75;1.60;;;;;;;;;;5085410;28;20037;-84
2023/08/27 06:47:35;;;;;;;3.25;1.35;;;;;;;;;;5083560;28;20057;-84
2023/08/27 06:50:01;;;;;;;5.68;1.83;;;;;;;;;;5100582;28;20028;-84
2023/08/27 06:52:26;;;;;;;1.95;1.40;;;;;;;;;;5087238;28;20039;-84
2023/08/27 06:54:53;;;;;;;1.73;1.38;;;;;;;;;;5085142;28;20039;-84
2023/08/27 06:57:21;;;;;;;1.33;1.20;;;;;;;;;;5083693;28;20469;-84
2023/08/27 06:59:46;;;;;;;2.33;1.27;;;;;;;;;;5076562;28;20047;-84
2023/08/27 07:02:13;;;;;;;1.80;1.10;;;;;;;;;;5088325;28;20024;-83
2023/08/27 07:04:39;;;;;;;3.17;1.10;;;;;;;;;;5083969;28;20059;-84
2023/08/27 07:07:05;;;;;;;1.73;0.90;;;;;;;;;;5078767;28;20071;-83
2023/08/27 07:09:31;;;;;;;2.10;1.00;;;;;;;;;;5073561;28;20071;-83
2023/08/27 07:11:57;;;;;;;2.78;1.00;;;;;;;;;;5073929;28;20074;-83
2023/08/27 07:14:22;;;;;;;1.58;0.90;;;;;;;;;;5086376;28;20040;-83
2023/08/27 07:16:48;;;;;;;1.00;0.77;;;;;;;;;;5084660;28;20043;-83
2023/08/27 07:19:13;;;;;;;1.52;0.80;;;;;;;;;;5076281;28;20032;-83
2023/08/27 07:21:39;;;;;;;1.58;0.98;;;;;;;;;;5085145;28;20028;-83
2023/08/27 07:24:05;;;;;;;1.13;0.80;;;;;;;;;;5090105;28;20028;-83
2023/08/27 07:26:31;;;;;;;1.17;0.80;;;;;;;;;;5086726;28;20035;-86
2023/08/27 07:28:57;;;;;;;2.45;0.80;;;;;;;;;;5079406;28;20035;-85
2023/08/27 07:31:22;;;;;;;0.95;0.80;;;;;;;;;;5087190;28;20036;-87
2023/08/27 07:33:51;;;;;;;1.20;0.80;;;;;;;;;;5093098;28;20032;-85
2023/08/27 07:36:17;;;;;;;1.65;0.75;;;;;;;;;;5079602;28;20082;-84
2023/08/27 07:38:42;;;;;;;1.75;0.80;;;;;;;;;;5085847;28;20037;-84
2023/08/27 07:41:09;;;;;;;1.60;0.95;;;;;;;;;;5089083;28;20363;-86
2023/08/27 07:43:35;;;;;;;2.67;0.93;;;;;;;;;;5087405;28;20047;-85
2023/08/27 07:46:00;;;;;;;1.35;1.00;;;;;;;;;;5088873;28;20040;-85
2023/08/27 07:48:27;;;;;;;3.00;1.00;;;;;;;;;;5076771;28;20031;-84
2023/08/27 07:50:53;;;;;;;3.13;0.80;;;;;;;;;;5084709;28;20436;-84
2023/08/27 07:53:19;;;;;;;2.47;0.80;;;;;;;;;;5088128;28;20051;-83
2023/08/27 07:55:44;;;;;;;1.35;0.85;;;;;;;;;;5087822;28;20416;-83
2023/08/27 07:58:10;;;;;;;1.00;0.88;;;;;;;;;;5089223;28;20024;-84
2023/08/27 08:00:35;;;;;;;2.88;0.90;;;;;;;;;;5080998;28;20043;-84
2023/08/27 08:03:01;;;;;;;2.65;0.95;;;;;;;;;;5081906;28;20020;-84
2023/08/27 08:05:26;;;;;;;1.90;0.90;;;;;;;;;;5081240;28;20028;-84
2023/08/27 08:07:52;;;;;;;2.15;0.90;;;;;;;;;;5073677;28;20035;-84
2023/08/27 08:10:18;;;;;;;3.20;1.00;;;;;;;;;;5084096;28;20438;-84
2023/08/27 08:12:44;;;;;;;3.25;1.05;;;;;;;;;;5083165;28;20457;-84
2023/08/27 08:15:10;;;;;;;1.75;1.10;;;;;;;;;;5079315;28;20073;-84
2023/08/27 08:17:35;;;;;;;2.40;0.88;;;;;;;;;;5085646;28;20020;-85
2023/08/27 08:20:02;;;;;;;1.05;0.70;;;;;;;;;;5084741;28;20054;-83
2023/08/27 08:22:28;;;;;;;0.70;0.70;;;;;;;;;;5081435;28;20058;-84
2023/08/27 08:24:53;;;;;;;1.23;0.80;;;;;;;;;;5080490;28;20040;-84
2023/08/27 08:27:19;;;;;;;1.83;1.00;;;;;;;;;;5082772;28;20077;-84
2023/08/27 08:29:44;;;;;;;1.40;0.90;;;;;;;;;;5063190;28;20036;-84
2023/08/27 08:32:10;;;;;;;1.58;0.90;;;;;;;;;;5075239;28;20502;-84
2023/08/27 08:34:35;;;;;;;1.30;0.80;;;;;;;;;;5078866;28;20028;-84
2023/08/27 08:37:01;;;;;;;1.17;0.80;;;;;;;;;;5085130;28;20111;-84
2023/08/27 08:39:26;;;;;;;3.20;0.85;;;;;;;;;;5080619;28;20031;-84
2023/08/27 08:42:06;;;;;;;3.35;0.80;;;;;;;;;;5078927;28;20665;-84
2023/08/27 08:44:39;;;;;;;1.70;0.70;;;;;;;;;;5080051;28;20039;-84
2023/08/27 08:47:09;;;;;;;0.88;0.70;;;;;;;;;;5084370;28;20047;-84
2023/08/27 08:49:39;;;;;;;1.88;1.25;;;;;;;;;;5084945;28;20041;-84
2023/08/27 08:52:08;;;;;;;1.50;1.10;;;;;;;;;;5095290;28;20032;-84
2023/08/27 08:54:37;;;;;;;0.90;0.80;;;;;;;;;;5077070;28;20024;-85
2023/08/27 08:57:04;;;;;;;1.35;1.00;;;;;;;;;;5104000;28;20414;-83
2023/08/27 08:59:32;;;;;;;1.35;1.00;;;;;;;;;;5102613;28;20037;-85
2023/08/27 09:01:59;;;;;;;2.35;0.90;;;;;;;;;;5089836;28;20707;-83
2023/08/27 09:04:25;;;;;;;1.08;0.90;;;;;;;;;;5075951;28;20090;-84
2023/08/27 09:06:52;;;;;;;1.15;0.90;;;;;;;;;;5078349;28;20047;-84
2023/08/27 09:09:20;;;;;;;1.08;0.90;;;;;;;;;;5076689;28;20436;-84
2023/08/27 09:11:49;;;;;;;1.52;0.90;;;;;;;;;;5081331;28;20639;-84
2023/08/27 09:14:15;;;;;;;1.13;0.80;;;;;;;;;;5090835;28;20124;-84
2023/08/27 09:16:41;;;;;;;2.15;1.00;;;;;;;;;;5077612;28;20080;-84
2023/08/27 09:19:06;;;;;;;2.05;0.90;;;;;;;;;;5078325;28;20024;-84
2023/08/27 09:21:34;;;;;;;1.15;0.90;;;;;;;;;;5082706;28;20040;-84
2023/08/27 09:24:00;;;;;;;1.52;1.02;;;;;;;;;;5084151;28;20024;-84
2023/08/27 09:26:25;;;;;;;5.00;1.00;;;;;;;;;;5099143;28;20048;-84
2023/08/27 09:28:52;;;;;;;1.45;1.00;;;;;;;;;;5076724;28;20027;-84
2023/08/27 09:31:43;;;;;;;1.83;1.00;;;;;;;;;;5075316;28;20035;-83
2023/08/27 09:34:09;;;;;;;1.60;0.80;;;;;;;;;;5088184;28;20446;-84
2023/08/27 09:36:36;;;;;;;1.85;1.00;;;;;;;;;;5085370;28;20028;-84
2023/08/27 09:39:11;;;;;;;1.45;1.08;;;;;;;;;;5078782;28;20028;-83
2023/08/27 09:41:38;;;;;;;3.90;1.30;;;;;;;;;;5075860;28;20103;-83
2023/08/27 09:44:05;;;;;;;2.22;1.08;;;;;;;;;;5078123;28;20057;-84
2023/08/27 09:46:30;;;;;;;3.05;1.00;;;;;;;;;;5086703;28;20500;-83
2023/08/27 09:49:01;;;;;;;2.03;1.00;;;;;;;;;;5081024;28;20033;-84
2023/08/27 09:51:30;;;;;;;1.52;1.10;;;;;;;;;;5079144;28;20046;-85
2023/08/27 09:53:56;;;;;;;1.90;1.00;;;;;;;;;;5075555;28;20029;-85
2023/08/27 09:56:25;;;;;;;2.22;1.15;;;;;;;;;;5089840;28;20039;-85
2023/08/27 09:58:55;;;;;;;3.00;1.00;;;;;;;;;;5086065;28;20561;-84
2023/08/27 10:01:33;;;;;;;2.03;0.90;;;;;;;;;;5092081;28;20032;-84
2023/08/27 10:04:10;;;;;;;2.63;1.15;;;;;;;;;;5078240;28;20032;-85
2023/08/27 10:06:39;;;;;;;3.08;0.90;;;;;;;;;;5093162;28;20036;-84
2023/08/27 10:09:05;;;;;;;1.05;0.90;;;;;;;;;;5086275;28;20104;-83
2023/08/27 10:11:33;;;;;;;2.63;1.05;;;;;;;;;;5084534;28;20020;-84
2023/08/27 10:14:00;;;;;;;1.33;1.00;;;;;;;;;;5106338;28;20039;-86
2023/08/27 10:16:30;;;;;;;1.60;1.10;;;;;;;;;;5082709;28;20074;-86
2023/08/27 10:19:01;;;;;;;2.40;1.10;;;;;;;;;;5084365;28;20032;-86
2023/08/27 10:21:27;;;;;;;1.30;1.00;;;;;;;;;;5085627;28;20038;-87
2023/08/27 10:23:53;;;;;;;1.67;0.95;;;;;;;;;;5084902;28;20044;-86
2023/08/27 10:26:18;;;;;;;3.63;1.30;;;;;;;;;;5090445;28;20028;-85
2023/08/27 10:28:44;;;;;;;1.13;1.00;;;;;;;;;;5086949;28;20152;-85
2023/08/27 10:31:13;;;;;;;2.88;1.20;;;;;;;;;;5098811;28;20044;-84
2023/08/27 10:33:38;;;;;;;2.35;0.98;;;;;;;;;;5087150;28;20162;-84
2023/08/27 10:36:09;;;;;;;2.63;1.00;;;;;;;;;;5093163;28;20658;-85
2023/08/27 10:38:37;;;;;;;1.52;1.05;;;;;;;;;;5083265;28;20060;-84
2023/08/27 10:41:03;;;;;;;1.38;1.00;;;;;;;;;;5083040;28;20111;-84
2023/08/27 10:43:33;;;;;;;1.35;0.90;;;;;;;;;;5085361;28;20550;-85
2023/08/27 10:46:28;;;;;;;1.60;1.13;;;;;;;;;;5086914;28;20152;-84
2023/08/27 10:48:54;;;;;;;1.33;1.13;;;;;;;;;;5073854;28;20051;-84
2023/08/27 10:51:32;;;;;;;2.97;1.25;;;;;;;;;;5087835;28;20055;-87
2023/08/27 10:54:00;;;;;;;1.60;1.20;;;;;;;;;;5091726;28;20515;-87
2023/08/27 10:56:32;;;;;;;1.83;1.20;;;;;;;;;;5089904;28;20111;-87
2023/08/27 10:59:28;;;;;;;1.52;0.90;;;;;;;;;;5083773;28;20044;-85
2023/08/27 11:01:53;;;;;;;1.52;0.98;;;;;;;;;;5083233;28;20048;-86
2023/08/27 11:04:19;;;;;;;1.33;1.00;;;;;;;;;;5090875;28;20027;-85
2023/08/27 11:06:47;;;;;;;1.90;1.05;;;;;;;;;;5087969;28;20044;-84
2023/08/27 11:09:18;;;;;;;2.45;1.00;;;;;;;;;;5088072;28;20483;-84
2023/08/27 11:12:03;;;;;;;1.88;1.15;;;;;;;;;;5101554;28;20115;-83
2023/08/27 11:14:35;;;;;;;3.42;1.20;;;;;;;;;;5092200;28;20028;-87
2023/08/27 11:17:05;;;;;;;2.35;1.00;;;;;;;;;;5093471;28;20142;-87
2023/08/27 11:19:34;;;;;;;2.33;1.00;;;;;;;;;;5086140;28;20672;-86
2023/08/27 11:22:14;;;;;;;1.95;1.02;;;;;;;;;;5092469;28;20469;-86
2023/08/27 11:24:57;;;;;;;1.20;1.00;;;;;;;;;;5090517;28;20177;-87
2023/08/27 11:27:25;;;;;;;2.35;1.10;;;;;;;;;;5089809;28;20036;-85
2023/08/27 11:29:52;;;;;;;2.47;1.00;;;;;;;;;;5090573;28;20101;-85
2023/08/27 11:32:22;;;;;;;1.65;1.10;;;;;;;;;;5103202;28;20052;-86
2023/08/27 11:34:52;;;;;;;2.15;1.10;;;;;;;;;;5088261;28;20079;-85
2023/08/27 11:37:20;;;;;;;1.83;1.10;;;;;;;;;;5091252;28;20123;-86
2023/08/27 11:39:46;;;;;;;1.55;1.10;;;;;;;;;;5088832;28;20032;-85
2023/08/27 11:42:14;;;;;;;2.47;1.10;;;;;;;;;;5085106;28;20036;-86
2023/08/27 11:44:49;;;;;;;2.17;1.00;;;;;;;;;;5106034;28;20028;-85
2023/08/27 11:47:15;;;;;;;1.80;1.10;;;;;;;;;;5104246;28;20051;-86
2023/08/27 11:49:41;;;;;;;2.08;1.05;;;;;;;;;;5087057;28;20369;-83
2023/08/27 11:52:06;;;;;;;2.08;1.15;;;;;;;;;;5088692;28;20028;-84
2023/08/27 11:54:34;;;;;;;1.52;1.00;;;;;;;;;;5094640;28;20031;-85
2023/08/27 11:57:02;;;;;;;1.23;1.05;;;;;;;;;;5092521;28;20029;-84
2023/08/27 11:59:28;;;;;;;1.60;1.13;;;;;;;;;;5088118;28;20029;-84
2023/08/27 12:01:56;;;;;;;2.92;1.10;;;;;;;;;;5093985;28;20119;-84
2023/08/27 12:04:22;;;;;;;2.85;1.00;;;;;;;;;;5093321;28;20029;-85
2023/08/27 12:06:58;;;;;;;2.50;1.00;;;;;;;;;;5089593;28;20020;-86
2023/08/27 12:09:30;;;;;;;3.67;1.10;;;;;;;;;;5086133;28;20025;-85
2023/08/27 12:12:00;;;;;;;2.00;1.10;;;;;;;;;;5086211;28;20032;-84
2023/08/27 12:14:26;;;;;;;2.00;1.17;;;;;;;;;;5095490;28;20039;-84
2023/08/27 12:16:53;;;;;;;1.35;1.10;;;;;;;;;;5095365;28;20385;-84
2023/08/27 12:19:20;;;;;;;3.20;1.30;;;;;;;;;;5090274;28;20088;-84
2023/08/27 12:22:06;;;;;;;1.80;1.20;;;;;;;;;;5092608;28;20358;-84
2023/08/27 12:24:41;;;;;;;1.60;1.10;;;;;;;;;;5083062;28;20039;-83
2023/08/27 12:27:25;;;;;;;2.70;1.17;;;;;;;;;;5091208;28;20073;-84
2023/08/27 12:29:52;;;;;;;2.22;1.00;;;;;;;;;;5087490;28;20070;-84
2023/08/27 12:32:22;;;;;;;1.70;1.30;;;;;;;;;;5085345;28;20028;-84
2023/08/27 12:34:50;;;;;;;1.67;1.10;;;;;;;;;;5087392;28;20042;-83
2023/08/27 12:37:18;;;;;;;2.92;1.05;;;;;;;;;;5082866;28;20027;-84
2023/08/27 12:39:44;;;;;;;1.73;1.10;;;;;;;;;;5088002;28;20084;-84
2023/08/27 12:42:16;;;;;;;2.17;1.02;;;;;;;;;;5086048;28;20568;-84
2023/08/27 12:44:43;;;;;;;1.33;1.00;;;;;;;;;;5087759;28;20020;-84
2023/08/27 12:47:09;;;;;;;1.33;1.02;;;;;;;;;;5087787;28;20028;-83
2023/08/27 12:49:35;;;;;;;3.00;1.08;;;;;;;;;;5071684;28;20032;-82
2023/08/27 12:52:01;;;;;;;3.42;1.20;;;;;;;;;;5092634;28;20033;-83
2023/08/27 12:54:28;;;;;;;3.42;1.20;;;;;;;;;;5089541;28;20377;-83
2023/08/27 12:56:55;;;;;;;1.35;1.00;;;;;;;;;;5094674;28;20024;-83
2023/08/27 12:59:21;;;;;;;2.85;1.00;;;;;;;;;;5079559;28;20034;-85
2023/08/27 13:01:48;;;;;;;2.90;1.15;;;;;;;;;;5075931;28;20748;-86
2023/08/27 13:04:13;;;;;;;1.58;1.08;;;;;;;;;;5090836;28;20047;-87
2023/08/27 13:06:41;;;;;;;1.65;1.13;;;;;;;;;;5089176;28;20465;-83
2023/08/27 13:09:06;;;;;;;2.72;1.00;;;;;;;;;;5088572;28;20020;-85
2023/08/27 13:11:32;;;;;;;2.45;1.20;;;;;;;;;;5095862;28;20035;-85
2023/08/27 13:13:58;;;;;;;1.30;0.98;;;;;;;;;;5090067;28;20040;-85
2023/08/27 13:16:24;;;;;;;1.42;1.10;;;;;;;;;;5093388;28;20032;-86
2023/08/27 13:18:49;;;;;;;1.38;0.95;;;;;;;;;;5085681;28;20020;-86
2023/08/27 13:21:17;;;;;;;1.75;0.95;;;;;;;;;;5083925;28;20038;-86
2023/08/27 13:23:43;;;;;;;2.45;0.90;;;;;;;;;;5088773;28;20036;-85
2023/08/27 13:26:09;;;;;;;1.40;0.80;;;;;;;;;;5084640;28;20020;-86
2023/08/27 13:28:35;;;;;;;1.73;0.90;;;;;;;;;;5088651;28;20473;-85
2023/08/27 13:31:01;;;;;;;1.75;0.82;;;;;;;;;;5088813;28;20036;-86
2023/08/27 13:33:27;;;;;;;2.47;0.82;;;;;;;;;;5088807;28;20024;-86
2023/08/27 13:35:52;;;;;;;1.13;0.90;;;;;;;;;;5082347;28;20031;-86
2023/08/27 13:38:18;;;;;;;1.73;0.80;;;;;;;;;;5078849;28;20081;-87
2023/08/27 13:40:44;;;;;;;1.33;0.80;;;;;;;;;;5083759;28;20033;-87
2023/08/27 13:43:09;;;;;;;1.05;0.70;;;;;;;;;;5091774;28;20024;-86
2023/08/27 13:45:35;;;;;;;0.70;0.60;;;;;;;;;;5086434;28;20119;-86
2023/08/27 13:48:00;;;;;;;1.42;0.70;;;;;;;;;;5078640;28;20039;-84
2023/08/27 13:50:26;;;;;;;0.90;0.70;;;;;;;;;;5082766;28;20020;-87
2023/08/27 13:52:52;;;;;;;0.77;0.70;;;;;;;;;;5088064;28;20446;-87
2023/08/27 13:55:17;;;;;;;1.00;0.60;;;;;;;;;;5088770;28;20024;-87
2023/08/27 13:57:43;;;;;;;1.58;0.50;;;;;;;;;;5084658;28;20028;-87
2023/08/27 14:00:11;;;;;;;1.20;0.50;;;;;;;;;;5083704;28;20020;-86
2023/08/27 14:02:40;;;;;;;1.00;0.60;;;;;;;;;;5087121;28;20111;-87
2023/08/27 14:05:06;;;;;;;0.65;0.60;;;;;;;;;;5092043;28;20120;-87
2023/08/27 14:07:32;;;;;;;1.30;0.75;;;;;;;;;;5087379;28;20042;-87
2023/08/27 14:09:58;;;;;;;1.50;0.65;;;;;;;;;;5088536;28;20052;-87
2023/08/27 14:12:23;;;;;;;1.13;0.80;;;;;;;;;;5090207;28;20470;-87
2023/08/27 14:14:49;;;;;;;4.07;1.00;;;;;;;;;;5094187;28;20028;-87
2023/08/27 14:17:17;;;;;;;2.85;0.60;;;;;;;;;;5086689;28;20435;-86
2023/08/27 14:19:42;;;;;;;1.10;0.60;;;;;;;;;;5096518;28;20032;-83
2023/08/27 14:22:08;;;;;;;1.40;0.70;;;;;;;;;;5090943;28;20046;-83
2023/08/27 14:24:34;;;;;;;0.88;0.75;;;;;;;;;;5094469;28;20086;-83
2023/08/27 14:27:03;;;;;;;0.65;0.50;;;;;;;;;;5102764;28;20566;-82
2023/08/27 14:29:29;;;;;;;1.52;0.80;;;;;;;;;;5082964;28;20021;-83
2023/08/27 14:31:55;;;;;;;0.98;0.70;;;;;;;;;;5090985;28;20429;-84
2023/08/27 14:34:20;;;;;;;0.88;0.60;;;;;;;;;;5095749;28;20477;-83
2023/08/27 14:36:45;;;;;;;2.05;0.70;;;;;;;;;;5088774;28;20032;-84
2023/08/27 14:39:11;;;;;;;1.40;0.80;;;;;;;;;;5083093;28;20024;-83
2023/08/27 14:41:36;;;;;;;0.50;0.50;;;;;;;;;;5096083;28;20074;-84
2023/08/27 14:44:02;;;;;;;1.90;0.70;;;;;;;;;;5091978;28;20111;-83